createdAt,value
2023-03-13T00:01:42.343Z,4.11
2023-03-13T00:04:09.666Z,4.14
2023-03-13T00:06:38.721Z,4.22
2023-03-13T00:09:12.232Z,4.27
2023-03-13T00:11:39.435Z,4.25
2023-03-13T00:14:08.174Z,4.17
2023-03-13T00:16:37.511Z,4.13
2023-03-13T00:19:06.373Z,4.20
2023-03-13T00:21:33.686Z,4.08
2023-03-13T00:24:01.520Z,4.13
2023-03-13T00:26:29.497Z,4.18
2023-03-13T00:28:56.940Z,4.23
2023-03-13T00:31:30.218Z,4.23
2023-03-13T00:34:03.475Z,4.18
2023-03-13T00:36:35.953Z,4.23
2023-03-13T00:39:05.346Z,4.17
2023-03-13T00:41:33.629Z,4.26
2023-03-13T00:44:00.871Z,4.24
2023-03-13T00:46:29.885Z,4.26
2023-03-13T00:48:57.739Z,4.32
2023-03-13T00:51:27.269Z,4.34
2023-03-13T00:54:00.479Z,4.26
2023-03-13T00:56:28.634Z,4.29
2023-03-13T00:58:55.817Z,4.31
2023-03-13T01:01:32.110Z,4.32
2023-03-13T01:04:06.510Z,4.34
2023-03-13T01:06:36.949Z,4.42
2023-03-13T01:09:06.630Z,4.33
2023-03-13T01:11:37.407Z,4.33
2023-03-13T01:14:08.866Z,4.30
2023-03-13T01:16:38.227Z,4.34
2023-03-13T01:19:13.474Z,4.26
2023-03-13T01:21:43.458Z,4.20
2023-03-13T01:24:11.121Z,4.27
2023-03-13T01:26:38.247Z,4.30
2023-03-13T01:29:05.342Z,4.22
2023-03-13T01:31:35.212Z,4.32
2023-03-13T01:34:05.711Z,4.39
2023-03-13T01:36:33.505Z,4.47
2023-03-13T01:39:01.447Z,4.49
2023-03-13T01:41:31.244Z,4.38
2023-03-13T01:43:59.920Z,4.34
2023-03-13T01:46:31.244Z,4.39
2023-03-13T01:49:36.025Z,4.34
2023-03-13T01:52:26.011Z,4.39
2023-03-13T01:55:14.877Z,4.30
2023-03-13T01:57:47.249Z,4.31
2023-03-13T02:00:29.181Z,4.31
2023-03-13T02:03:01.007Z,4.30
2023-03-13T02:05:30.557Z,4.44
2023-03-13T02:08:08.678Z,4.33
2023-03-13T02:10:44.879Z,4.28
2023-03-13T02:13:15.283Z,4.26
2023-03-13T02:15:42.558Z,4.28
2023-03-13T02:18:10.886Z,4.28
2023-03-13T02:20:40.456Z,4.20
2023-03-13T02:23:42.237Z,4.29
2023-03-13T02:26:09.559Z,4.37
2023-03-13T02:28:39.758Z,4.30
2023-03-13T02:31:08.333Z,4.29
2023-03-13T02:33:39.958Z,4.28
2023-03-13T02:36:08.982Z,4.36
2023-03-13T02:38:53.953Z,4.30
2023-03-13T02:41:23.062Z,4.26
2023-03-13T02:43:50.060Z,4.36
2023-03-13T02:46:20.659Z,4.23
2023-03-13T02:48:51.415Z,4.17
2023-03-13T02:51:42.144Z,4.25
2023-03-13T02:54:19.225Z,4.26
2023-03-13T02:56:50.627Z,4.31
2023-03-13T02:59:17.963Z,4.29
2023-03-13T03:01:45.772Z,4.30
2023-03-13T03:04:13.190Z,4.23
2023-03-13T03:06:40.224Z,4.17
2023-03-13T03:09:07.241Z,4.30
2023-03-13T03:11:34.212Z,4.28
2023-03-13T03:14:02.115Z,4.24
2023-03-13T03:16:29.183Z,4.18
2023-03-13T03:18:56.283Z,4.11
2023-03-13T03:21:24.000Z,4.19
2023-03-13T03:23:51.646Z,4.20
2023-03-13T03:26:18.791Z,4.26
2023-03-13T03:28:45.888Z,4.17
2023-03-13T03:31:15.188Z,4.05
2023-03-13T03:33:43.763Z,4.01
2023-03-13T03:36:16.166Z,4.14
2023-03-13T03:38:44.097Z,4.13
2023-03-13T03:41:14.040Z,4.19
2023-03-13T03:43:41.791Z,4.25
2023-03-13T03:46:09.650Z,4.23
2023-03-13T03:48:37.726Z,4.22
2023-03-13T03:51:05.780Z,4.16
2023-03-13T03:53:32.797Z,4.05
2023-03-13T03:56:00.115Z,4.05
2023-03-13T03:58:27.129Z,4.09
2023-03-13T04:00:57.824Z,4.10
2023-03-13T04:03:25.718Z,4.07
2023-03-13T04:05:53.181Z,4.08
2023-03-13T04:08:20.224Z,4.10
2023-03-13T04:10:47.407Z,4.06
2023-03-13T04:13:14.836Z,4.08
2023-03-13T04:15:42.228Z,3.93
2023-03-13T04:18:09.269Z,4.11
2023-03-13T04:20:36.820Z,4.12
2023-03-13T04:23:04.027Z,4.00
2023-03-13T04:25:31.121Z,4.14
2023-03-13T04:27:58.123Z,4.11
2023-03-13T04:30:25.163Z,4.14
2023-03-13T04:32:52.274Z,4.12
2023-03-13T04:35:19.523Z,4.00
2023-03-13T04:37:46.619Z,4.03
2023-03-13T04:40:14.021Z,4.05
2023-03-13T04:42:42.374Z,3.96
2023-03-13T04:45:12.249Z,4.03
2023-03-13T04:47:39.540Z,4.03
2023-03-13T04:50:07.125Z,4.15
2023-03-13T04:52:34.166Z,4.08
2023-03-13T04:55:01.282Z,3.94
2023-03-13T04:57:28.445Z,3.96
2023-03-13T04:59:55.506Z,4.08
2023-03-13T05:02:22.916Z,3.92
2023-03-13T05:04:52.119Z,4.01
2023-03-13T05:07:19.336Z,4.07
2023-03-13T05:09:46.310Z,4.08
2023-03-13T05:12:13.319Z,4.09
2023-03-13T05:14:40.319Z,4.00
2023-03-13T05:17:07.303Z,3.97
2023-03-13T05:19:34.370Z,4.03
2023-03-13T05:22:01.375Z,3.99
2023-03-13T05:24:28.378Z,4.06
2023-03-13T05:26:55.376Z,3.98
2023-03-13T05:29:22.572Z,4.00
2023-03-13T05:31:49.575Z,4.15
2023-03-13T05:34:16.719Z,4.05
2023-03-13T05:36:43.953Z,4.11
2023-03-13T05:39:11.092Z,4.10
2023-03-13T05:41:38.154Z,4.10
2023-03-13T05:44:05.335Z,4.17
2023-03-13T05:46:32.542Z,4.25
2023-03-13T05:48:59.594Z,4.37
2023-03-13T05:51:26.638Z,4.30
2023-03-13T05:53:53.629Z,4.34
2023-03-13T05:56:20.680Z,4.41
2023-03-13T05:58:47.694Z,4.43
2023-03-13T06:01:15.319Z,4.37
2023-03-13T06:03:42.550Z,4.35
2023-03-13T06:06:09.876Z,4.44
2023-03-13T06:08:36.924Z,4.44
2023-03-13T06:11:04.069Z,4.43
2023-03-13T06:13:31.317Z,4.52
2023-03-13T06:15:59.027Z,4.55
2023-03-13T06:18:27.195Z,4.57
2023-03-13T06:21:01.983Z,4.61
2023-03-13T06:23:29.538Z,4.59
2023-03-13T06:25:56.706Z,4.68
2023-03-13T06:28:23.910Z,4.64
2023-03-13T06:30:50.970Z,4.64
2023-03-13T06:33:18.125Z,4.66
2023-03-13T06:35:55.761Z,4.74
2023-03-13T06:38:24.852Z,4.70
2023-03-13T06:40:52.414Z,4.67
2023-03-13T06:43:20.251Z,4.65
2023-03-13T06:45:47.621Z,4.72
2023-03-13T06:48:14.694Z,4.78
2023-03-13T06:50:42.477Z,4.73
2023-03-13T06:53:20.287Z,4.75
2023-03-13T06:55:49.198Z,4.77
2023-03-13T06:58:31.091Z,4.72
2023-03-13T07:01:20.249Z,4.78
2023-03-13T07:03:48.957Z,4.72
2023-03-13T07:06:16.967Z,4.74
2023-03-13T07:08:44.407Z,4.86
2023-03-13T07:11:14.015Z,4.80
2023-03-13T07:13:41.042Z,4.86
2023-03-13T07:16:12.054Z,4.80
2023-03-13T07:18:41.946Z,4.78
2023-03-13T07:21:11.418Z,4.93
2023-03-13T07:23:38.508Z,4.90
2023-03-13T07:26:10.902Z,4.96
2023-03-13T07:28:38.177Z,4.99
2023-03-13T07:31:20.996Z,4.99
2023-03-13T07:33:48.177Z,5.01
2023-03-13T07:36:16.686Z,5.08
2023-03-13T07:38:47.422Z,5.08
2023-03-13T07:41:14.623Z,5.10
2023-03-13T07:43:41.969Z,5.27
2023-03-13T07:46:12.643Z,5.26
2023-03-13T07:48:42.490Z,5.31
2023-03-13T07:51:18.014Z,5.43
2023-03-13T07:53:47.749Z,5.51
2023-03-13T07:56:22.495Z,5.66
2023-03-13T07:58:50.176Z,5.72
2023-03-13T08:01:29.807Z,5.78
2023-03-13T08:03:58.867Z,5.82
2023-03-13T08:06:32.628Z,5.87
2023-03-13T08:09:00.480Z,5.94
2023-03-13T08:11:29.090Z,6.17
2023-03-13T08:13:57.711Z,6.29
2023-03-13T08:16:31.712Z,6.34
2023-03-13T08:19:00.297Z,6.32
2023-03-13T08:21:30.873Z,6.42
2023-03-13T08:24:01.906Z,6.35
2023-03-13T08:26:31.034Z,6.31
2023-03-13T08:29:05.000Z,6.33
2023-03-13T08:31:36.364Z,6.41
2023-03-13T08:34:03.735Z,6.42
2023-03-13T08:36:37.107Z,6.46
2023-03-13T08:39:21.014Z,6.51
2023-03-13T08:41:48.282Z,6.55
2023-03-13T08:44:22.723Z,6.62
2023-03-13T08:46:50.192Z,6.68
2023-03-13T08:49:17.858Z,6.65
2023-03-13T08:51:45.002Z,6.71
2023-03-13T08:54:12.101Z,6.85
2023-03-13T08:56:41.024Z,6.83
2023-03-13T08:59:08.029Z,6.91
2023-03-13T09:01:36.566Z,7.14
2023-03-13T09:04:05.553Z,7.33
2023-03-13T09:06:37.338Z,7.68
2023-03-13T09:09:06.735Z,7.95
2023-03-13T09:11:34.691Z,8.25
2023-03-13T09:14:01.667Z,8.51
2023-03-13T09:16:31.490Z,8.82
2023-03-13T09:18:59.604Z,9.04
2023-03-13T09:21:32.871Z,9.39
2023-03-13T09:24:01.301Z,9.68
2023-03-13T09:26:28.983Z,10.02
2023-03-13T09:28:56.506Z,10.47
2023-03-13T09:31:32.234Z,10.75
2023-03-13T09:34:00.423Z,10.96
2023-03-13T09:36:28.466Z,11.11
2023-03-13T09:38:58.570Z,11.23
2023-03-13T09:41:44.402Z,11.34
2023-03-13T09:44:23.328Z,11.72
2023-03-13T09:47:11.008Z,11.96
2023-03-13T09:50:19.592Z,12.18
2023-03-13T09:52:50.082Z,12.16
2023-03-13T09:55:27.449Z,12.05
2023-03-13T09:58:17.908Z,12.00
2023-03-13T10:00:53.799Z,11.92
2023-03-13T10:03:26.237Z,11.80
2023-03-13T10:06:04.242Z,12.00
2023-03-13T10:08:34.443Z,12.08
2023-03-13T10:11:18.090Z,11.96
2023-03-13T10:14:13.314Z,11.90
2023-03-13T10:17:01.175Z,11.79
2023-03-13T10:19:37.859Z,11.86
2023-03-13T10:22:20.069Z,12.02
2023-03-13T10:25:02.823Z,12.00
2023-03-13T10:27:29.818Z,12.01
2023-03-13T10:29:56.785Z,12.00
2023-03-13T10:32:23.821Z,11.93
2023-03-13T10:34:57.595Z,11.84
2023-03-13T10:37:43.536Z,11.64
2023-03-13T10:40:25.247Z,11.77
2023-03-13T10:42:59.568Z,11.85
2023-03-13T10:45:27.508Z,11.90
2023-03-13T10:47:57.010Z,11.84
2023-03-13T10:50:27.876Z,11.97
2023-03-13T10:52:55.236Z,11.92
2023-03-13T10:55:25.566Z,11.91
2023-03-13T10:58:03.199Z,11.84
2023-03-13T11:00:37.271Z,12.15
2023-03-13T11:03:19.081Z,12.18
2023-03-13T11:06:00.628Z,12.40
2023-03-13T11:08:46.058Z,12.44
2023-03-13T11:11:20.779Z,12.38
2023-03-13T11:13:47.899Z,12.32
2023-03-13T11:16:29.337Z,12.49
2023-03-13T11:19:14.310Z,12.58
2023-03-13T11:22:15.001Z,12.58
2023-03-13T11:24:53.872Z,12.79
2023-03-13T11:27:27.373Z,13.05
2023-03-13T11:30:17.491Z,13.33
2023-03-13T11:33:24.111Z,13.30
2023-03-13T11:36:14.278Z,13.64
2023-03-13T11:38:45.966Z,13.84
2023-03-13T11:41:46.031Z,14.07
2023-03-13T11:44:46.446Z,14.14
2023-03-13T11:47:36.500Z,14.12
2023-03-13T11:50:26.289Z,14.24
2023-03-13T11:53:14.192Z,14.22
2023-03-13T11:56:08.658Z,14.20
2023-03-13T11:59:32.911Z,14.33
2023-03-13T12:02:49.857Z,14.11
2023-03-13T12:05:20.768Z,14.04
2023-03-13T12:07:53.494Z,13.86
2023-03-13T12:11:17.101Z,13.71
2023-03-13T12:14:09.026Z,13.56
2023-03-13T12:17:35.051Z,13.55
2023-03-13T12:20:47.360Z,13.41
2023-03-13T12:23:33.840Z,13.55
2023-03-13T12:26:21.908Z,13.25
2023-03-13T12:28:57.678Z,13.18
2023-03-13T12:31:50.822Z,13.16
2023-03-13T12:34:44.036Z,12.91
2023-03-13T12:37:42.023Z,12.78
2023-03-13T12:40:43.196Z,12.80
2023-03-13T12:43:18.977Z,12.61
2023-03-13T12:46:37.995Z,12.53
2023-03-13T12:49:12.190Z,12.51
2023-03-13T12:52:15.395Z,12.36
2023-03-13T12:54:59.894Z,12.36
2023-03-13T12:57:41.706Z,12.25
2023-03-13T13:00:25.453Z,12.23
2023-03-13T13:03:17.486Z,12.26
2023-03-13T13:06:11.561Z,12.31
2023-03-13T13:08:53.792Z,12.35
2023-03-13T13:11:47.420Z,12.13
2023-03-13T13:14:17.457Z,12.16
2023-03-13T13:16:55.852Z,12.13
2023-03-13T13:19:26.017Z,12.13
2023-03-13T13:22:36.746Z,12.07
2023-03-13T13:25:13.134Z,12.05
2023-03-13T13:27:40.009Z,12.06
2023-03-13T13:30:19.198Z,11.88
2023-03-13T13:33:33.662Z,11.89
2023-03-13T13:36:09.935Z,11.80
2023-03-13T13:38:44.003Z,11.75
2023-03-13T13:41:11.008Z,11.79
2023-03-13T13:43:42.719Z,11.71
2023-03-13T13:46:31.456Z,11.69
2023-03-13T13:49:17.000Z,11.66
2023-03-13T13:52:06.752Z,11.55
2023-03-13T13:54:47.015Z,11.59
2023-03-13T13:57:29.904Z,11.47
2023-03-13T14:00:25.049Z,11.45
2023-03-13T14:02:56.936Z,11.32
2023-03-13T14:05:28.028Z,11.30
2023-03-13T14:08:08.192Z,11.36
2023-03-13T14:11:23.953Z,11.36
2023-03-13T14:14:23.363Z,11.22
2023-03-13T14:16:58.825Z,11.21
2023-03-13T14:19:42.916Z,11.20
2023-03-13T14:22:14.289Z,11.23
2023-03-13T14:24:41.424Z,11.28
2023-03-13T14:27:19.943Z,11.16
2023-03-13T14:30:11.187Z,11.16
2023-03-13T14:32:39.447Z,11.14
2023-03-13T14:35:08.749Z,11.19
2023-03-13T14:37:50.111Z,11.20
2023-03-13T14:40:29.829Z,11.36
2023-03-13T14:43:00.169Z,11.28
2023-03-13T14:45:37.005Z,11.24
2023-03-13T14:48:21.781Z,11.06
2023-03-13T14:50:59.660Z,11.09
2023-03-13T14:53:35.936Z,11.00
2023-03-13T14:56:19.225Z,10.92
2023-03-13T14:58:48.796Z,10.96
2023-03-13T15:01:31.235Z,10.88
2023-03-13T15:03:58.308Z,10.88
2023-03-13T15:06:26.390Z,10.91
2023-03-13T15:09:20.236Z,10.72
2023-03-13T15:11:59.336Z,10.77
2023-03-13T15:14:42.518Z,11.64
2023-03-13T15:17:24.739Z,12.07
2023-03-13T15:19:55.658Z,11.71
2023-03-13T15:22:35.195Z,11.47
2023-03-13T15:25:06.340Z,11.19
2023-03-13T15:27:35.049Z,11.10
2023-03-13T15:30:02.635Z,10.93
2023-03-13T15:32:38.958Z,10.86
2023-03-13T15:35:32.778Z,10.82
2023-03-13T15:38:01.827Z,10.79
2023-03-13T15:40:31.145Z,10.80
2023-03-13T15:42:59.443Z,10.75
2023-03-13T15:45:26.443Z,10.76
2023-03-13T15:47:54.038Z,10.77
2023-03-13T15:50:29.858Z,10.73
2023-03-13T15:53:00.988Z,10.68
2023-03-13T15:55:29.627Z,10.72
2023-03-13T15:57:56.813Z,10.68
2023-03-13T16:00:27.868Z,10.72
2023-03-13T16:02:55.029Z,10.67
2023-03-13T16:05:22.097Z,10.64
2023-03-13T16:07:49.129Z,10.76
2023-03-13T16:10:34.601Z,10.75
2023-03-13T16:13:03.530Z,10.65
2023-03-13T16:15:30.569Z,10.67
2023-03-13T16:17:57.612Z,10.61
2023-03-13T16:20:26.514Z,10.72
2023-03-13T16:22:54.123Z,10.64
2023-03-13T16:25:22.852Z,10.61
2023-03-13T16:27:50.013Z,10.58
2023-03-13T16:30:32.848Z,10.59
2023-03-13T16:33:00.329Z,10.64
2023-03-13T16:35:29.219Z,10.57
2023-03-13T16:37:58.014Z,10.64
2023-03-13T16:40:34.181Z,10.60
2023-03-13T16:43:01.671Z,10.57
2023-03-13T16:45:28.839Z,10.55
2023-03-13T16:47:55.910Z,10.53
2023-03-13T16:50:34.330Z,10.51
2023-03-13T16:53:01.493Z,10.58
2023-03-13T16:55:29.792Z,10.69
2023-03-13T16:58:00.467Z,10.48
2023-03-13T17:00:31.197Z,10.50
2023-03-13T17:02:58.913Z,10.57
2023-03-13T17:05:27.121Z,10.55
2023-03-13T17:07:54.582Z,10.49
2023-03-13T17:10:29.012Z,10.49
2023-03-13T17:12:56.096Z,10.51
2023-03-13T17:15:25.141Z,10.47
2023-03-13T17:17:54.171Z,10.64
2023-03-13T17:20:25.893Z,10.62
2023-03-13T17:22:53.234Z,10.61
2023-03-13T17:25:20.315Z,10.51
2023-03-13T17:27:48.584Z,10.49
2023-03-13T17:30:18.948Z,10.57
2023-03-13T17:32:46.945Z,10.67
2023-03-13T17:35:14.642Z,10.70
2023-03-13T17:37:43.078Z,10.69
2023-03-13T17:40:22.729Z,10.72
2023-03-13T17:42:50.100Z,10.77
2023-03-13T17:45:18.049Z,10.89
2023-03-13T17:47:45.626Z,10.88
2023-03-13T17:50:23.626Z,10.94
2023-03-13T17:52:51.015Z,10.92
2023-03-13T17:55:18.855Z,10.89
2023-03-13T17:57:47.941Z,11.04
2023-03-13T18:00:29.448Z,10.94
2023-03-13T18:02:56.794Z,11.00
2023-03-13T18:05:23.861Z,10.95
2023-03-13T18:07:52.250Z,11.48
2023-03-13T18:10:28.782Z,12.17
2023-03-13T18:12:57.249Z,12.57
2023-03-13T18:15:26.348Z,12.79
2023-03-13T18:17:54.030Z,12.60
2023-03-13T18:20:30.182Z,12.21
2023-03-13T18:23:00.322Z,12.00
2023-03-13T18:25:29.413Z,11.83
2023-03-13T18:27:56.410Z,11.77
2023-03-13T18:30:25.117Z,11.72
2023-03-13T18:32:52.726Z,11.69
2023-03-13T18:35:20.150Z,11.59
2023-03-13T18:37:48.555Z,11.57
2023-03-13T18:40:24.538Z,11.49
2023-03-13T18:42:51.939Z,11.51
2023-03-13T18:45:23.415Z,11.55
2023-03-13T18:47:50.537Z,11.47
2023-03-13T18:50:29.492Z,11.50
2023-03-13T18:52:59.361Z,11.45
2023-03-13T18:55:29.950Z,11.34
2023-03-13T18:57:57.179Z,11.56
2023-03-13T19:00:30.799Z,11.54
2023-03-13T19:02:58.031Z,11.41
2023-03-13T19:05:25.119Z,11.40
2023-03-13T19:07:52.311Z,11.37
2023-03-13T19:10:28.243Z,11.34
2023-03-13T19:12:56.793Z,11.35
2023-03-13T19:15:27.805Z,11.46
2023-03-13T19:17:56.289Z,11.40
2023-03-13T19:20:24.155Z,11.54
2023-03-13T19:22:51.262Z,11.40
2023-03-13T19:25:19.078Z,11.63
2023-03-13T19:27:47.649Z,11.50
2023-03-13T19:30:20.479Z,11.45
2023-03-13T19:32:47.756Z,11.44
2023-03-13T19:35:19.101Z,11.58
2023-03-13T19:37:46.584Z,11.55
2023-03-13T19:40:26.152Z,11.50
2023-03-13T19:42:53.171Z,11.43
2023-03-13T19:45:21.951Z,11.36
2023-03-13T19:47:49.285Z,11.58
2023-03-13T19:50:27.683Z,11.41
2023-03-13T19:52:54.798Z,11.33
2023-03-13T19:55:21.858Z,11.31
2023-03-13T19:57:48.880Z,11.21
2023-03-13T20:00:29.493Z,11.19
2023-03-13T20:02:56.655Z,11.17
2023-03-13T20:05:27.193Z,11.17
2023-03-13T20:07:54.438Z,11.36
2023-03-13T20:10:22.110Z,11.28
2023-03-13T20:12:49.107Z,11.28
2023-03-13T20:15:16.462Z,11.30
2023-03-13T20:17:43.562Z,11.38
2023-03-13T20:20:11.436Z,11.45
2023-03-13T20:22:38.471Z,11.38
2023-03-13T20:25:05.910Z,11.42
2023-03-13T20:27:32.929Z,11.51
2023-03-13T20:30:00.767Z,11.46
2023-03-13T20:32:28.232Z,11.42
2023-03-13T20:34:55.248Z,11.42
2023-03-13T20:37:22.310Z,11.40
2023-03-13T20:39:49.388Z,11.39
2023-03-13T20:42:16.643Z,11.41
2023-03-13T20:44:43.817Z,11.37
2023-03-13T20:47:10.791Z,11.40
2023-03-13T20:49:41.145Z,11.46
2023-03-13T20:52:08.368Z,11.42
2023-03-13T20:54:35.858Z,11.44
2023-03-13T20:57:02.873Z,11.42
2023-03-13T20:59:29.890Z,11.47
2023-03-13T21:01:56.973Z,11.47
2023-03-13T21:04:24.136Z,11.59
2023-03-13T21:06:51.427Z,11.51
2023-03-13T21:09:18.595Z,11.52
2023-03-13T21:11:45.649Z,11.59
2023-03-13T21:14:12.668Z,11.48
2023-03-13T21:16:39.719Z,11.47
2023-03-13T21:19:06.755Z,11.48
2023-03-13T21:21:33.868Z,11.49
2023-03-13T21:24:00.861Z,11.40
2023-03-13T21:26:27.862Z,11.38
2023-03-13T21:28:54.854Z,11.53
2023-03-13T21:31:21.986Z,11.43
2023-03-13T21:33:49.637Z,11.40
2023-03-13T21:36:20.867Z,11.42
2023-03-13T21:38:51.738Z,11.35
2023-03-13T21:41:21.425Z,11.35
2023-03-13T21:43:48.637Z,11.30
2023-03-13T21:46:17.999Z,11.38
2023-03-13T21:51:18.354Z,11.42
2023-03-13T21:53:45.428Z,11.49
2023-03-13T21:56:16.659Z,11.43
2023-03-13T21:58:47.937Z,11.34
2023-03-13T22:01:15.955Z,11.30
2023-03-13T22:03:43.374Z,11.27
2023-03-13T22:06:19.751Z,11.21
2023-03-13T22:08:49.302Z,11.22
2023-03-13T22:11:16.593Z,11.14
2023-03-13T22:13:43.987Z,11.18
2023-03-13T22:16:11.929Z,11.14
2023-03-13T22:18:39.678Z,11.19
2023-03-13T22:21:06.938Z,11.10
2023-03-13T22:23:34.000Z,11.14
2023-03-13T22:26:01.063Z,11.09
2023-03-13T22:28:28.347Z,11.11
2023-03-13T22:30:55.405Z,11.16
2023-03-13T22:33:22.445Z,11.30
2023-03-13T22:35:52.605Z,11.06
2023-03-13T22:38:20.632Z,11.03
2023-03-13T22:40:56.482Z,11.03
2023-03-13T22:43:23.470Z,11.03
2023-03-13T22:45:50.589Z,11.10
2023-03-13T22:48:17.878Z,11.06
2023-03-13T22:50:45.001Z,10.99
2023-03-13T22:53:12.449Z,10.99
2023-03-13T22:55:39.573Z,11.04
2023-03-13T22:58:07.717Z,11.12
2023-03-13T23:00:34.723Z,11.00
2023-03-13T23:03:01.762Z,11.03
2023-03-13T23:05:28.851Z,11.06
2023-03-13T23:07:55.914Z,10.99
2023-03-13T23:10:23.013Z,11.13
2023-03-13T23:12:50.049Z,11.11
2023-03-13T23:15:17.147Z,11.03
2023-03-13T23:17:44.180Z,11.11
2023-03-13T23:20:13.318Z,11.04
2023-03-13T23:22:46.043Z,10.96
2023-03-13T23:25:14.144Z,11.10
2023-03-13T23:27:42.564Z,11.14
2023-03-13T23:30:14.439Z,11.04
2023-03-13T23:32:45.405Z,11.21
2023-03-13T23:35:13.600Z,11.07
2023-03-13T23:37:40.656Z,11.07
2023-03-13T23:40:10.537Z,11.12
2023-03-13T23:42:37.775Z,10.99
2023-03-13T23:45:06.569Z,10.89
2023-03-13T23:47:34.132Z,10.88
2023-03-13T23:50:01.243Z,10.86
2023-03-13T23:52:28.325Z,10.85
2023-03-13T23:54:55.365Z,10.79
2023-03-13T23:57:22.458Z,10.69
2023-03-13T23:59:49.422Z,10.82
